createdAt,value
2019-06-08T00:01:43.051Z,15.40
2019-06-08T00:05:46.054Z,15.50
2019-06-08T00:09:49.085Z,15.50
2019-06-08T00:13:52.375Z,15.30
2019-06-08T00:17:54.731Z,15.60
2019-06-08T00:21:55.705Z,15.50
2019-06-08T00:25:56.739Z,15.60
2019-06-08T00:29:59.745Z,15.50
2019-06-08T00:34:02.843Z,15.20
2019-06-08T00:38:05.921Z,15.30
2019-06-08T00:42:08.909Z,15.20
2019-06-08T00:46:11.995Z,15.10
2019-06-08T00:50:16.647Z,15.10
2019-06-08T00:54:19.829Z,15.10
2019-06-08T00:58:24.201Z,15.00
2019-06-08T01:02:27.544Z,14.90
2019-06-08T01:06:31.853Z,15.00
2019-06-08T01:10:34.857Z,15.00
2019-06-08T01:14:37.867Z,15.10
2019-06-08T01:18:41.569Z,14.80
2019-06-08T01:22:44.552Z,14.90
2019-06-08T01:26:47.556Z,15.00
2019-06-08T01:30:50.547Z,15.00
2019-06-08T01:34:53.551Z,15.10
2019-06-08T01:38:56.534Z,14.90
2019-06-08T01:42:59.550Z,14.90
2019-06-08T01:47:02.534Z,14.80
2019-06-08T01:51:05.518Z,14.80
2019-06-08T01:55:08.609Z,14.90
2019-06-08T01:59:11.615Z,15.00
2019-06-08T02:03:14.617Z,15.00
2019-06-08T02:07:17.634Z,15.10
2019-06-08T02:11:20.635Z,15.20
2019-06-08T02:15:25.182Z,15.10
2019-06-08T02:19:30.505Z,15.20
2019-06-08T02:23:33.614Z,15.20
2019-06-08T02:27:36.622Z,15.40
2019-06-08T02:31:39.648Z,15.40
2019-06-08T02:35:42.660Z,15.50
2019-06-08T02:39:45.671Z,15.60
2019-06-08T02:43:48.748Z,15.50
2019-06-08T02:47:51.746Z,15.40
2019-06-08T02:51:55.075Z,15.50
2019-06-08T02:55:58.264Z,15.30
2019-06-08T03:00:01.791Z,15.40
2019-06-08T03:04:04.979Z,15.50
2019-06-08T03:08:08.977Z,15.50
2019-06-08T03:12:12.376Z,15.50
2019-06-08T03:16:15.376Z,15.30
2019-06-08T03:20:19.239Z,15.10
2019-06-08T03:24:22.485Z,15.10
2019-06-08T03:28:25.495Z,15.10
2019-06-08T03:32:28.589Z,15.00
2019-06-08T03:36:34.224Z,15.20
2019-06-08T03:40:38.049Z,15.00
2019-06-08T03:44:43.011Z,15.10
2019-06-08T03:48:46.710Z,15.10
2019-06-08T03:52:49.772Z,14.90
2019-06-08T03:56:52.778Z,15.00
2019-06-08T04:00:55.768Z,15.00
2019-06-08T04:04:58.772Z,15.00
2019-06-08T04:09:03.286Z,15.00
2019-06-08T04:13:06.287Z,15.00
2019-06-08T04:17:09.359Z,15.00
2019-06-08T04:21:12.941Z,15.00
2019-06-08T04:25:17.052Z,14.90
2019-06-08T04:29:20.060Z,14.90
2019-06-08T04:33:23.065Z,14.90
2019-06-08T04:37:26.064Z,14.70
2019-06-08T04:41:29.057Z,14.90
2019-06-08T04:45:32.055Z,15.10
2019-06-08T04:49:35.054Z,15.30
2019-06-08T04:53:38.537Z,15.00
2019-06-08T04:57:43.237Z,14.90
2019-06-08T05:01:47.141Z,14.90
2019-06-08T05:05:50.352Z,14.90
2019-06-08T05:09:53.464Z,15.30
2019-06-08T05:13:56.460Z,15.70
2019-06-08T05:17:59.470Z,16.40
2019-06-08T05:22:03.743Z,16.50
2019-06-08T05:26:06.740Z,17.20
2019-06-08T05:30:10.264Z,17.60
2019-06-08T05:34:13.264Z,17.60
2019-06-08T05:38:16.307Z,17.20
2019-06-08T05:42:19.308Z,16.50
2019-06-08T05:46:22.322Z,16.90
2019-06-08T05:50:25.311Z,16.10
2019-06-08T05:54:28.393Z,16.40
2019-06-08T05:58:31.405Z,16.70
2019-06-08T06:02:34.399Z,16.70
2019-06-08T06:06:37.400Z,17.00
2019-06-08T06:10:40.762Z,16.80
2019-06-08T06:14:44.969Z,16.90
2019-06-08T06:18:49.132Z,16.90
2019-06-08T06:22:53.281Z,16.60
2019-06-08T06:26:56.275Z,16.70
2019-06-08T06:30:59.284Z,16.80
2019-06-08T06:35:04.695Z,17.20
2019-06-08T06:39:07.806Z,17.00
2019-06-08T06:43:10.801Z,17.00
2019-06-08T06:47:13.824Z,17.10
2019-06-08T06:51:25.806Z,17.20
2019-06-08T06:55:25.248Z,17.10
2019-06-08T06:59:26.875Z,17.30
2019-06-08T07:03:29.881Z,17.10
2019-06-08T07:07:33.724Z,17.50
2019-06-08T07:11:36.721Z,17.40
2019-06-08T07:15:41.741Z,17.10
2019-06-08T07:19:46.094Z,17.50
2019-06-08T07:23:51.268Z,17.40
2019-06-08T07:27:55.491Z,17.80
2019-06-08T07:31:59.330Z,18.00
2019-06-08T07:36:02.829Z,18.00
2019-06-08T07:40:06.140Z,18.60
2019-06-08T07:44:09.156Z,18.50
2019-06-08T07:48:12.276Z,18.70
2019-06-08T07:52:15.294Z,18.80
2019-06-08T07:56:18.306Z,18.90
2019-06-08T08:00:21.428Z,18.90
2019-06-08T08:04:24.466Z,19.50
2019-06-08T08:08:27.476Z,20.40
2019-06-08T08:12:30.484Z,21.10
2019-06-08T08:16:33.511Z,20.70
2019-06-08T08:20:36.531Z,22.00
2019-06-08T08:24:39.983Z,22.60
2019-06-08T08:28:43.032Z,23.00
2019-06-08T08:32:48.128Z,22.60
2019-06-08T08:36:52.208Z,22.00
2019-06-08T08:40:59.353Z,20.70
2019-06-08T08:45:05.003Z,20.60
2019-06-08T08:49:10.428Z,21.60
2019-06-08T08:53:10.719Z,22.80
2019-06-08T08:57:13.756Z,22.30
2019-06-08T09:01:20.281Z,22.90
2019-06-08T09:05:21.752Z,23.20
2019-06-08T09:09:25.035Z,24.20
2019-06-08T09:13:28.352Z,24.30
2019-06-08T09:17:31.360Z,24.80
2019-06-08T09:21:34.390Z,25.20
2019-06-08T09:25:40.500Z,25.90
2019-06-08T09:29:43.985Z,24.70
2019-06-08T09:33:53.433Z,24.20
2019-06-08T09:37:53.198Z,22.80
2019-06-08T09:42:00.439Z,22.20
2019-06-08T09:46:04.181Z,21.40
2019-06-08T09:50:09.262Z,21.90
2019-06-08T09:54:12.708Z,22.10
2019-06-08T09:58:18.134Z,22.90
2019-06-08T10:02:21.127Z,23.90
2019-06-08T10:06:24.138Z,24.40
2019-06-08T10:10:27.183Z,24.70
2019-06-08T10:14:30.233Z,24.30
2019-06-08T10:18:33.248Z,25.60
2019-06-08T10:22:36.323Z,26.20
2019-06-08T10:26:41.333Z,24.00
2019-06-08T10:30:44.433Z,23.40
2019-06-08T10:34:48.142Z,21.70
2019-06-08T10:38:51.255Z,21.90
2019-06-08T10:42:54.257Z,21.60
2019-06-08T10:47:00.509Z,21.90
2019-06-08T10:51:04.227Z,23.10
2019-06-08T10:55:10.360Z,22.90
2019-06-08T10:59:12.760Z,23.00
2019-06-08T11:03:16.103Z,23.90
2019-06-08T11:07:19.150Z,23.20
2019-06-08T11:11:22.151Z,23.70
2019-06-08T11:15:29.344Z,23.60
2019-06-08T11:19:33.084Z,23.50
2019-06-08T11:23:38.470Z,23.20
2019-06-08T11:27:41.849Z,22.50
2019-06-08T11:31:45.077Z,23.20
2019-06-08T11:35:48.083Z,24.20
2019-06-08T11:39:51.081Z,25.10
2019-06-08T11:43:54.098Z,23.90
2019-06-08T11:47:58.384Z,24.20
2019-06-08T11:52:02.558Z,24.40
2019-06-08T11:56:09.433Z,23.90
2019-06-08T12:00:24.030Z,23.90
2019-06-08T12:04:19.439Z,24.70
2019-06-08T12:08:22.631Z,24.40
2019-06-08T12:12:28.156Z,23.80
2019-06-08T12:16:30.590Z,24.00
2019-06-08T12:20:33.694Z,23.50
2019-06-08T12:24:41.935Z,22.60
2019-06-08T12:28:42.285Z,22.30
2019-06-08T12:32:45.352Z,22.20
2019-06-08T12:36:48.659Z,22.30
2019-06-08T12:40:51.679Z,23.50
2019-06-08T12:44:54.745Z,23.70
2019-06-08T12:48:58.326Z,23.50
2019-06-08T12:53:01.570Z,23.50
2019-06-08T12:57:04.568Z,23.70
2019-06-08T13:01:09.344Z,23.30
2019-06-08T13:05:16.419Z,23.10
2019-06-08T13:09:20.246Z,23.00
2019-06-08T13:13:24.404Z,23.00
2019-06-08T13:17:28.191Z,23.10
2019-06-08T13:21:35.148Z,23.10
2019-06-08T13:25:42.802Z,24.00
2019-06-08T13:29:42.502Z,24.50
2019-06-08T13:33:45.515Z,24.30
2019-06-08T13:37:48.536Z,24.90
2019-06-08T13:41:52.201Z,24.60
2019-06-08T13:45:58.041Z,24.40
2019-06-08T13:50:00.337Z,23.50
2019-06-08T13:54:03.337Z,23.80
2019-06-08T13:58:06.354Z,24.10
2019-06-08T14:02:09.359Z,24.00
2019-06-08T14:06:12.404Z,23.10
2019-06-08T14:10:22.111Z,23.30
2019-06-08T14:14:24.676Z,22.90
2019-06-08T14:18:33.819Z,22.70
2019-06-08T14:22:33.740Z,23.20
2019-06-08T14:26:37.630Z,23.20
2019-06-08T14:30:41.781Z,22.80
2019-06-08T14:34:44.802Z,23.40
2019-06-08T14:38:49.454Z,23.80
2019-06-08T14:42:52.783Z,23.60
2019-06-08T14:46:57.755Z,23.40
2019-06-08T14:51:00.731Z,23.00
2019-06-08T14:55:04.267Z,22.60
2019-06-08T14:59:08.181Z,23.10
2019-06-08T15:03:11.439Z,23.10
2019-06-08T15:07:14.442Z,23.30
2019-06-08T15:11:17.926Z,23.60
2019-06-08T15:15:21.616Z,23.20
2019-06-08T15:19:24.899Z,23.70
2019-06-08T15:23:30.878Z,23.50
2019-06-08T15:27:33.388Z,23.10
2019-06-08T15:31:39.053Z,22.80
2019-06-08T15:35:42.239Z,22.80
2019-06-08T15:39:45.250Z,22.60
2019-06-08T15:43:48.294Z,22.60
2019-06-08T15:47:51.300Z,22.00
2019-06-08T15:51:54.299Z,21.70
2019-06-08T15:55:58.355Z,22.10
2019-06-08T16:00:04.621Z,22.20
2019-06-08T16:04:07.640Z,22.20
2019-06-08T16:08:10.635Z,22.50
2019-06-08T16:12:13.635Z,22.80
2019-06-08T16:16:16.646Z,23.10
2019-06-08T16:20:19.809Z,22.70
2019-06-08T16:24:22.901Z,22.20
2019-06-08T16:28:26.033Z,21.80
2019-06-08T16:32:31.356Z,22.10
2019-06-08T16:36:35.616Z,22.50
2019-06-08T16:40:38.765Z,22.00
2019-06-08T16:44:41.768Z,21.80
2019-06-08T16:48:44.773Z,21.90
2019-06-08T16:52:47.783Z,22.00
2019-06-08T16:56:50.811Z,21.80
2019-06-08T17:00:53.815Z,21.80
2019-06-08T17:04:56.832Z,22.00
2019-06-08T17:08:59.850Z,22.10
2019-06-08T17:13:02.878Z,22.50
2019-06-08T17:17:05.898Z,22.70
2019-06-08T17:21:09.002Z,22.80
2019-06-08T17:25:12.785Z,22.90
2019-06-08T17:29:15.788Z,22.90
2019-06-08T17:33:19.703Z,22.50
2019-06-08T17:37:22.752Z,22.40
2019-06-08T17:41:25.859Z,22.30
2019-06-08T17:45:29.024Z,22.10
2019-06-08T17:49:32.484Z,22.00
2019-06-08T17:53:36.896Z,22.10
2019-06-08T17:57:48.541Z,22.20
2019-06-08T18:01:45.000Z,22.50
2019-06-08T18:05:48.605Z,22.50
2019-06-08T18:09:52.121Z,22.60
2019-06-08T18:13:55.275Z,22.70
2019-06-08T18:17:58.283Z,22.60
2019-06-08T18:22:05.161Z,22.60
2019-06-08T18:26:07.747Z,22.70
2019-06-08T18:30:12.529Z,22.60
2019-06-08T18:34:17.766Z,22.50
2019-06-08T18:38:21.006Z,22.50
2019-06-08T18:42:24.041Z,22.50
2019-06-08T18:46:27.275Z,22.50
2019-06-08T18:50:30.388Z,22.50
2019-06-08T18:54:33.397Z,22.50
2019-06-08T18:58:37.685Z,22.40
2019-06-08T19:02:43.308Z,22.20
2019-06-08T19:06:45.862Z,22.00
2019-06-08T19:10:50.386Z,21.90
2019-06-08T19:14:53.880Z,21.50
2019-06-08T19:18:58.106Z,21.00
2019-06-08T19:23:01.330Z,20.60
2019-06-08T19:27:04.437Z,20.30
2019-06-08T19:31:10.091Z,20.00
2019-06-08T19:35:13.494Z,19.60
2019-06-08T19:39:17.825Z,19.40
2019-06-08T19:43:21.045Z,19.20
2019-06-08T19:47:24.047Z,19.00
2019-06-08T19:51:27.876Z,18.80
2019-06-08T19:55:31.985Z,18.60
2019-06-08T19:59:35.413Z,18.50
2019-06-08T20:03:40.564Z,18.40
2019-06-08T20:07:43.599Z,18.20
2019-06-08T20:11:52.576Z,18.10
2019-06-08T20:15:57.143Z,17.90
2019-06-08T20:19:58.381Z,17.70
2019-06-08T20:24:01.372Z,17.50
2019-06-08T20:28:04.418Z,17.40
2019-06-08T20:32:08.366Z,17.20
2019-06-08T20:36:13.807Z,16.90
2019-06-08T20:40:18.003Z,16.80
2019-06-08T20:44:21.240Z,16.70
2019-06-08T20:48:24.260Z,16.50
2019-06-08T20:52:28.140Z,16.60
2019-06-08T20:56:31.487Z,16.50
2019-06-08T21:00:34.496Z,16.50
2019-06-08T21:04:38.367Z,16.50
2019-06-08T21:08:41.726Z,16.50
2019-06-08T21:12:46.225Z,16.40
2019-06-08T21:16:50.844Z,16.40
2019-06-08T21:20:55.842Z,16.40
2019-06-08T21:25:00.162Z,16.30
2019-06-08T21:29:03.422Z,16.10
2019-06-08T21:33:08.302Z,15.80
2019-06-08T21:37:13.551Z,15.80
2019-06-08T21:41:17.247Z,15.70
2019-06-08T21:45:20.455Z,15.60
2019-06-08T21:49:23.706Z,15.50
2019-06-08T21:53:27.526Z,15.50
2019-06-08T21:57:30.737Z,15.50
2019-06-08T22:01:34.160Z,15.40
2019-06-08T22:05:37.700Z,15.40
2019-06-08T22:09:40.883Z,15.40
2019-06-08T22:13:43.892Z,15.30
2019-06-08T22:17:47.586Z,15.10
2019-06-08T22:21:52.167Z,15.20
2019-06-08T22:25:58.271Z,15.20
2019-06-08T22:30:02.607Z,15.00
2019-06-08T22:34:05.927Z,14.90
2019-06-08T22:38:10.712Z,14.90
2019-06-08T22:42:13.737Z,14.90
2019-06-08T22:46:17.796Z,14.90
2019-06-08T22:50:21.036Z,14.80
2019-06-08T22:54:24.052Z,14.80
2019-06-08T22:58:27.663Z,14.80
2019-06-08T23:02:30.786Z,14.70
2019-06-08T23:06:33.950Z,14.70
2019-06-08T23:10:37.429Z,14.60
2019-06-08T23:14:40.762Z,14.50
2019-06-08T23:18:43.769Z,14.50
2019-06-08T23:22:47.498Z,14.40
2019-06-08T23:26:50.764Z,14.40
2019-06-08T23:31:07.958Z,14.40
2019-06-08T23:34:58.746Z,14.40
2019-06-08T23:39:07.238Z,14.40
2019-06-08T23:43:10.424Z,14.30
2019-06-08T23:47:13.427Z,14.20
2019-06-08T23:51:18.054Z,14.00
2019-06-08T23:55:21.263Z,14.00
2019-06-08T23:59:24.264Z,13.90
